sensor_id;sensor_type;location;lat;lon;timestamp;P1;durP1;ratioP1;P2;durP2;ratioP2
19645;SDS011;9971;52.446;13.452;2023-10-13T00:01:03;4.72;;;2.37;;
19645;SDS011;9971;52.446;13.452;2023-10-13T00:06:05;4.30;;;3.02;;
19645;SDS011;9971;52.446;13.452;2023-10-13T00:11:11;5.27;;;2.83;;
19645;SDS011;9971;52.446;13.452;2023-10-13T00:16:11;4.80;;;2.73;;
19645;SDS011;9971;52.446;13.452;2023-10-13T00:21:14;4.90;;;2.90;;
19645;SDS011;9971;52.446;13.452;2023-10-13T00:26:15;3.17;;;2.22;;
19645;SDS011;9971;52.446;13.452;2023-10-13T00:31:18;4.23;;;2.20;;
19645;SDS011;9971;52.446;13.452;2023-10-13T00:36:20;3.57;;;2.60;;
19645;SDS011;9971;52.446;13.452;2023-10-13T00:41:23;3.83;;;2.63;;
19645;SDS011;9971;52.446;13.452;2023-10-13T00:46:26;3.47;;;2.27;;
19645;SDS011;9971;52.446;13.452;2023-10-13T00:51:28;4.80;;;2.63;;
19645;SDS011;9971;52.446;13.452;2023-10-13T00:56:34;2.87;;;2.65;;
19645;SDS011;9971;52.446;13.452;2023-10-13T01:01:36;3.03;;;2.30;;
19645;SDS011;9971;52.446;13.452;2023-10-13T01:06:39;2.85;;;2.45;;
19645;SDS011;9971;52.446;13.452;2023-10-13T01:11:40;3.43;;;3.10;;
19645;SDS011;9971;52.446;13.452;2023-10-13T01:16:44;3.53;;;3.23;;
19645;SDS011;9971;52.446;13.452;2023-10-13T01:21:47;5.27;;;3.63;;
19645;SDS011;9971;52.446;13.452;2023-10-13T01:26:49;4.60;;;3.62;;
19645;SDS011;9971;52.446;13.452;2023-10-13T01:31:52;5.43;;;4.03;;
19645;SDS011;9971;52.446;13.452;2023-10-13T01:36:55;6.50;;;4.08;;
19645;SDS011;9971;52.446;13.452;2023-10-13T01:41:57;3.92;;;3.60;;
19645;SDS011;9971;52.446;13.452;2023-10-13T01:46:59;5.73;;;5.20;;
19645;SDS011;9971;52.446;13.452;2023-10-13T01:52:10;4.73;;;4.33;;
19645;SDS011;9971;52.446;13.452;2023-10-13T01:57:13;6.08;;;5.28;;
19645;SDS011;9971;52.446;13.452;2023-10-13T02:02:15;5.78;;;4.55;;
19645;SDS011;9971;52.446;13.452;2023-10-13T02:07:20;7.77;;;4.87;;
19645;SDS011;9971;52.446;13.452;2023-10-13T02:12:22;5.35;;;4.78;;
19645;SDS011;9971;52.446;13.452;2023-10-13T02:17:26;7.50;;;5.20;;
19645;SDS011;9971;52.446;13.452;2023-10-13T02:22:28;6.47;;;5.33;;
19645;SDS011;9971;52.446;13.452;2023-10-13T02:27:32;7.87;;;5.90;;
19645;SDS011;9971;52.446;13.452;2023-10-13T02:32:32;10.23;;;6.17;;
19645;SDS011;9971;52.446;13.452;2023-10-13T02:37:34;7.10;;;5.42;;
19645;SDS011;9971;52.446;13.452;2023-10-13T02:42:37;7.42;;;5.33;;
19645;SDS011;9971;52.446;13.452;2023-10-13T02:47:39;7.95;;;5.20;;
19645;SDS011;9971;52.446;13.452;2023-10-13T02:52:45;6.27;;;5.53;;
19645;SDS011;9971;52.446;13.452;2023-10-13T02:57:48;6.80;;;5.30;;
19645;SDS011;9971;52.446;13.452;2023-10-13T03:02:51;6.28;;;5.37;;
19645;SDS011;9971;52.446;13.452;2023-10-13T03:07:56;7.90;;;5.37;;
19645;SDS011;9971;52.446;13.452;2023-10-13T03:12:57;8.57;;;6.33;;
19645;SDS011;9971;52.446;13.452;2023-10-13T03:17:59;6.62;;;5.80;;
19645;SDS011;9971;52.446;13.452;2023-10-13T03:23:02;7.60;;;6.50;;
19645;SDS011;9971;52.446;13.452;2023-10-13T03:28:04;7.37;;;5.72;;
19645;SDS011;9971;52.446;13.452;2023-10-13T03:33:07;8.48;;;6.47;;
19645;SDS011;9971;52.446;13.452;2023-10-13T03:38:09;8.23;;;6.83;;
19645;SDS011;9971;52.446;13.452;2023-10-13T03:43:19;8.10;;;6.97;;
19645;SDS011;9971;52.446;13.452;2023-10-13T03:48:23;7.37;;;6.67;;
19645;SDS011;9971;52.446;13.452;2023-10-13T03:53:33;8.90;;;7.97;;
19645;SDS011;9971;52.446;13.452;2023-10-13T03:58:35;9.00;;;8.20;;
19645;SDS011;9971;52.446;13.452;2023-10-13T04:03:37;9.98;;;8.28;;
19645;SDS011;9971;52.446;13.452;2023-10-13T04:08:39;9.10;;;8.15;;
19645;SDS011;9971;52.446;13.452;2023-10-13T04:13:46;10.37;;;8.90;;
19645;SDS011;9971;52.446;13.452;2023-10-13T04:19:06;12.10;;;9.63;;
19645;SDS011;9971;52.446;13.452;2023-10-13T04:24:08;11.75;;;10.63;;
19645;SDS011;9971;52.446;13.452;2023-10-13T04:29:16;11.27;;;9.17;;
19645;SDS011;9971;52.446;13.452;2023-10-13T04:34:19;11.73;;;10.40;;
19645;SDS011;9971;52.446;13.452;2023-10-13T04:39:22;11.28;;;9.40;;
19645;SDS011;9971;52.446;13.452;2023-10-13T04:44:31;10.60;;;8.93;;
19645;SDS011;9971;52.446;13.452;2023-10-13T04:49:39;9.90;;;8.88;;
19645;SDS011;9971;52.446;13.452;2023-10-13T04:54:58;13.30;;;9.93;;
19645;SDS011;9971;52.446;13.452;2023-10-13T05:00:01;10.58;;;9.03;;
19645;SDS011;9971;52.446;13.452;2023-10-13T05:05:14;10.20;;;9.20;;
19645;SDS011;9971;52.446;13.452;2023-10-13T05:10:34;11.90;;;9.77;;
19645;SDS011;9971;52.446;13.452;2023-10-13T05:15:43;10.17;;;8.83;;
19645;SDS011;9971;52.446;13.452;2023-10-13T05:20:57;9.83;;;8.83;;
19645;SDS011;9971;52.446;13.452;2023-10-13T05:26:05;10.73;;;8.73;;
19645;SDS011;9971;52.446;13.452;2023-10-13T05:31:13;8.50;;;7.70;;
19645;SDS011;9971;52.446;13.452;2023-10-13T05:36:22;10.82;;;8.78;;
19645;SDS011;9971;52.446;13.452;2023-10-13T05:41:31;10.00;;;8.80;;
19645;SDS011;9971;52.446;13.452;2023-10-13T05:46:38;8.93;;;7.83;;
19645;SDS011;9971;52.446;13.452;2023-10-13T05:51:47;9.20;;;8.18;;
19645;SDS011;9971;52.446;13.452;2023-10-13T05:57:00;9.07;;;8.17;;
19645;SDS011;9971;52.446;13.452;2023-10-13T06:02:19;9.37;;;8.47;;
19645;SDS011;9971;52.446;13.452;2023-10-13T06:07:26;10.90;;;9.70;;
19645;SDS011;9971;52.446;13.452;2023-10-13T06:12:34;10.47;;;7.83;;
19645;SDS011;9971;52.446;13.452;2023-10-13T06:17:42;11.53;;;8.57;;
19645;SDS011;9971;52.446;13.452;2023-10-13T06:22:50;9.70;;;8.07;;
19645;SDS011;9971;52.446;13.452;2023-10-13T06:27:58;11.10;;;8.40;;
19645;SDS011;9971;52.446;13.452;2023-10-13T06:33:06;8.77;;;7.93;;
19645;SDS011;9971;52.446;13.452;2023-10-13T06:38:08;9.60;;;8.60;;
19645;SDS011;9971;52.446;13.452;2023-10-13T06:43:10;10.37;;;8.53;;
19645;SDS011;9971;52.446;13.452;2023-10-13T06:48:12;8.88;;;7.95;;
19645;SDS011;9971;52.446;13.452;2023-10-13T06:53:15;9.70;;;7.70;;
19645;SDS011;9971;52.446;13.452;2023-10-13T06:58:17;7.83;;;7.00;;
19645;SDS011;9971;52.446;13.452;2023-10-13T07:03:20;8.95;;;8.13;;
19645;SDS011;9971;52.446;13.452;2023-10-13T07:08:22;9.65;;;7.40;;
19645;SDS011;9971;52.446;13.452;2023-10-13T07:13:24;7.42;;;6.55;;
19645;SDS011;9971;52.446;13.452;2023-10-13T07:18:26;8.10;;;6.53;;
19645;SDS011;9971;52.446;13.452;2023-10-13T07:23:29;7.85;;;6.65;;
19645;SDS011;9971;52.446;13.452;2023-10-13T07:28:31;7.07;;;6.17;;
19645;SDS011;9971;52.446;13.452;2023-10-13T07:33:33;8.23;;;5.70;;
19645;SDS011;9971;52.446;13.452;2023-10-13T07:38:35;7.80;;;6.08;;
19645;SDS011;9971;52.446;13.452;2023-10-13T07:43:38;6.45;;;5.78;;
19645;SDS011;9971;52.446;13.452;2023-10-13T07:48:41;6.80;;;5.87;;
19645;SDS011;9971;52.446;13.452;2023-10-13T07:53:43;5.87;;;5.17;;
19645;SDS011;9971;52.446;13.452;2023-10-13T07:58:45;6.30;;;5.70;;
19645;SDS011;9971;52.446;13.452;2023-10-13T08:03:58;7.37;;;6.17;;
19645;SDS011;9971;52.446;13.452;2023-10-13T08:09:05;6.23;;;5.67;;
19645;SDS011;9971;52.446;13.452;2023-10-13T08:14:08;6.27;;;5.37;;
19645;SDS011;9971;52.446;13.452;2023-10-13T08:19:12;7.35;;;5.30;;
19645;SDS011;9971;52.446;13.452;2023-10-13T08:24:13;5.90;;;5.40;;
19645;SDS011;9971;52.446;13.452;2023-10-13T08:29:16;6.87;;;5.17;;
19645;SDS011;9971;52.446;13.452;2023-10-13T08:34:35;5.95;;;4.47;;
19645;SDS011;9971;52.446;13.452;2023-10-13T08:39:40;4.87;;;4.47;;
19645;SDS011;9971;52.446;13.452;2023-10-13T08:44:48;5.40;;;4.90;;
19645;SDS011;9971;52.446;13.452;2023-10-13T08:49:50;5.08;;;4.58;;
19645;SDS011;9971;52.446;13.452;2023-10-13T08:54:52;5.33;;;4.73;;
19645;SDS011;9971;52.446;13.452;2023-10-13T08:59:55;5.87;;;4.25;;
19645;SDS011;9971;52.446;13.452;2023-10-13T09:04:57;5.12;;;4.58;;
19645;SDS011;9971;52.446;13.452;2023-10-13T09:10:01;5.10;;;4.10;;
19645;SDS011;9971;52.446;13.452;2023-10-13T09:15:04;6.75;;;4.72;;
19645;SDS011;9971;52.446;13.452;2023-10-13T09:20:06;5.72;;;4.45;;
19645;SDS011;9971;52.446;13.452;2023-10-13T09:25:14;4.37;;;3.97;;
19645;SDS011;9971;52.446;13.452;2023-10-13T09:30:17;5.83;;;4.53;;
19645;SDS011;9971;52.446;13.452;2023-10-13T09:35:20;4.60;;;4.22;;
19645;SDS011;9971;52.446;13.452;2023-10-13T09:40:24;6.07;;;4.13;;
19645;SDS011;9971;52.446;13.452;2023-10-13T09:45:27;5.45;;;4.45;;
19645;SDS011;9971;52.446;13.452;2023-10-13T09:50:28;4.73;;;4.37;;
19645;SDS011;9971;52.446;13.452;2023-10-13T09:55:30;5.03;;;4.53;;
19645;SDS011;9971;52.446;13.452;2023-10-13T10:00:32;5.50;;;4.80;;
19645;SDS011;9971;52.446;13.452;2023-10-13T10:05:41;5.03;;;3.97;;
19645;SDS011;9971;52.446;13.452;2023-10-13T10:10:43;6.17;;;4.55;;
19645;SDS011;9971;52.446;13.452;2023-10-13T10:15:46;5.67;;;5.07;;
19645;SDS011;9971;52.446;13.452;2023-10-13T10:20:46;5.97;;;5.13;;
19645;SDS011;9971;52.446;13.452;2023-10-13T10:25:48;4.63;;;4.30;;
19645;SDS011;9971;52.446;13.452;2023-10-13T10:30:50;5.70;;;4.12;;
19645;SDS011;9971;52.446;13.452;2023-10-13T10:35:59;5.62;;;3.83;;
19645;SDS011;9971;52.446;13.452;2023-10-13T10:41:02;5.90;;;4.47;;
19645;SDS011;9971;52.446;13.452;2023-10-13T10:46:03;4.50;;;4.10;;
19645;SDS011;9971;52.446;13.452;2023-10-13T10:51:06;6.37;;;4.20;;
19645;SDS011;9971;52.446;13.452;2023-10-13T10:56:09;4.75;;;4.35;;
19645;SDS011;9971;52.446;13.452;2023-10-13T11:01:10;4.93;;;4.43;;
19645;SDS011;9971;52.446;13.452;2023-10-13T11:06:12;5.85;;;4.47;;
19645;SDS011;9971;52.446;13.452;2023-10-13T11:11:15;7.25;;;4.87;;
19645;SDS011;9971;52.446;13.452;2023-10-13T11:16:21;5.13;;;4.73;;
19645;SDS011;9971;52.446;13.452;2023-10-13T11:21:22;5.30;;;4.30;;
19645;SDS011;9971;52.446;13.452;2023-10-13T11:31:34;7.80;;;5.55;;
19645;SDS011;9971;52.446;13.452;2023-10-13T11:36:36;7.62;;;5.15;;
19645;SDS011;9971;52.446;13.452;2023-10-13T11:41:38;4.65;;;4.10;;
19645;SDS011;9971;52.446;13.452;2023-10-13T11:46:41;5.70;;;4.00;;
19645;SDS011;9971;52.446;13.452;2023-10-13T11:52:00;6.78;;;4.37;;
19645;SDS011;9971;52.446;13.452;2023-10-13T11:57:18;5.47;;;4.37;;
19645;SDS011;9971;52.446;13.452;2023-10-13T12:02:20;5.22;;;4.12;;
19645;SDS011;9971;52.446;13.452;2023-10-13T12:07:41;5.57;;;4.03;;
19645;SDS011;9971;52.446;13.452;2023-10-13T12:12:46;7.10;;;3.93;;
19645;SDS011;9971;52.446;13.452;2023-10-13T12:17:48;5.70;;;3.92;;
19645;SDS011;9971;52.446;13.452;2023-10-13T12:22:51;5.92;;;4.03;;
19645;SDS011;9971;52.446;13.452;2023-10-13T12:27:53;5.67;;;4.20;;
19645;SDS011;9971;52.446;13.452;2023-10-13T12:32:57;5.80;;;3.83;;
19645;SDS011;9971;52.446;13.452;2023-10-13T12:37:59;6.55;;;3.90;;
19645;SDS011;9971;52.446;13.452;2023-10-13T12:43:06;5.63;;;4.40;;
19645;SDS011;9971;52.446;13.452;2023-10-13T12:48:14;6.13;;;4.30;;
19645;SDS011;9971;52.446;13.452;2023-10-13T12:53:22;6.73;;;4.30;;
19645;SDS011;9971;52.446;13.452;2023-10-13T12:58:24;5.78;;;3.95;;
19645;SDS011;9971;52.446;13.452;2023-10-13T13:03:26;8.15;;;4.05;;
19645;SDS011;9971;52.446;13.452;2023-10-13T13:08:29;7.77;;;4.17;;
19645;SDS011;9971;52.446;13.452;2023-10-13T13:13:32;6.67;;;4.33;;
19645;SDS011;9971;52.446;13.452;2023-10-13T13:18:35;6.67;;;3.92;;
19645;SDS011;9971;52.446;13.452;2023-10-13T13:23:37;6.62;;;3.98;;
19645;SDS011;9971;52.446;13.452;2023-10-13T13:28:39;4.50;;;3.63;;
19645;SDS011;9971;52.446;13.452;2023-10-13T13:33:41;6.65;;;3.87;;
19645;SDS011;9971;52.446;13.452;2023-10-13T13:38:44;7.00;;;3.98;;
19645;SDS011;9971;52.446;13.452;2023-10-13T13:43:47;8.35;;;3.75;;
19645;SDS011;9971;52.446;13.452;2023-10-13T13:48:51;7.03;;;4.00;;
19645;SDS011;9971;52.446;13.452;2023-10-13T13:53:55;6.97;;;3.73;;
19645;SDS011;9971;52.446;13.452;2023-10-13T13:58:57;8.90;;;4.10;;
19645;SDS011;9971;52.446;13.452;2023-10-13T14:03:59;5.28;;;3.65;;
19645;SDS011;9971;52.446;13.452;2023-10-13T14:09:05;6.83;;;4.17;;
19645;SDS011;9971;52.446;13.452;2023-10-13T14:14:22;4.87;;;3.50;;
19645;SDS011;9971;52.446;13.452;2023-10-13T14:19:35;5.73;;;3.67;;
19645;SDS011;9971;52.446;13.452;2023-10-13T14:24:36;7.10;;;4.10;;
19645;SDS011;9971;52.446;13.452;2023-10-13T14:29:39;5.70;;;3.47;;
19645;SDS011;9971;52.446;13.452;2023-10-13T14:34:42;8.28;;;4.00;;
19645;SDS011;9971;52.446;13.452;2023-10-13T14:39:43;8.00;;;3.62;;
19645;SDS011;9971;52.446;13.452;2023-10-13T14:44:46;5.08;;;3.17;;
19645;SDS011;9971;52.446;13.452;2023-10-13T14:49:48;5.20;;;3.77;;
19645;SDS011;9971;52.446;13.452;2023-10-13T14:54:51;5.35;;;3.37;;
19645;SDS011;9971;52.446;13.452;2023-10-13T14:59:57;7.62;;;4.17;;
19645;SDS011;9971;52.446;13.452;2023-10-13T15:04:59;9.28;;;4.60;;
19645;SDS011;9971;52.446;13.452;2023-10-13T15:10:01;7.53;;;3.80;;
19645;SDS011;9971;52.446;13.452;2023-10-13T15:15:04;5.90;;;3.72;;
19645;SDS011;9971;52.446;13.452;2023-10-13T15:20:07;7.30;;;4.42;;
19645;SDS011;9971;52.446;13.452;2023-10-13T15:25:11;7.97;;;4.23;;
19645;SDS011;9971;52.446;13.452;2023-10-13T15:30:34;7.87;;;4.35;;
19645;SDS011;9971;52.446;13.452;2023-10-13T15:35:41;8.30;;;4.20;;
19645;SDS011;9971;52.446;13.452;2023-10-13T15:40:44;8.40;;;4.45;;
19645;SDS011;9971;52.446;13.452;2023-10-13T15:45:46;6.90;;;5.03;;
19645;SDS011;9971;52.446;13.452;2023-10-13T15:50:48;6.33;;;3.62;;
19645;SDS011;9971;52.446;13.452;2023-10-13T15:55:51;7.65;;;4.22;;
19645;SDS011;9971;52.446;13.452;2023-10-13T16:00:53;6.37;;;4.13;;
19645;SDS011;9971;52.446;13.452;2023-10-13T16:05:55;4.95;;;4.12;;
19645;SDS011;9971;52.446;13.452;2023-10-13T16:11:06;4.78;;;3.90;;
19645;SDS011;9971;52.446;13.452;2023-10-13T16:27:18;8.97;;;4.33;;
19645;SDS011;9971;52.446;13.452;2023-10-13T16:32:21;9.45;;;4.25;;
19645;SDS011;9971;52.446;13.452;2023-10-13T16:37:23;7.47;;;3.87;;
19645;SDS011;9971;52.446;13.452;2023-10-13T16:42:25;11.28;;;4.10;;
19645;SDS011;9971;52.446;13.452;2023-10-13T16:47:31;5.67;;;4.43;;
19645;SDS011;9971;52.446;13.452;2023-10-13T16:52:43;6.37;;;3.90;;
19645;SDS011;9971;52.446;13.452;2023-10-13T16:57:44;4.63;;;3.70;;
19645;SDS011;9971;52.446;13.452;2023-10-13T17:02:46;7.23;;;4.30;;
19645;SDS011;9971;52.446;13.452;2023-10-13T17:07:49;4.87;;;3.92;;
19645;SDS011;9971;52.446;13.452;2023-10-13T17:12:52;6.60;;;4.00;;
19645;SDS011;9971;52.446;13.452;2023-10-13T17:17:54;7.53;;;3.87;;
19645;SDS011;9971;52.446;13.452;2023-10-13T17:22:56;6.83;;;4.03;;
19645;SDS011;9971;52.446;13.452;2023-10-13T17:27:59;5.57;;;4.23;;
19645;SDS011;9971;52.446;13.452;2023-10-13T17:33:07;6.97;;;3.67;;
19645;SDS011;9971;52.446;13.452;2023-10-13T17:38:08;7.63;;;4.13;;
19645;SDS011;9971;52.446;13.452;2023-10-13T17:43:11;7.43;;;3.87;;
19645;SDS011;9971;52.446;13.452;2023-10-13T17:48:14;4.70;;;4.23;;
19645;SDS011;9971;52.446;13.452;2023-10-13T17:53:16;6.58;;;4.12;;
19645;SDS011;9971;52.446;13.452;2023-10-13T17:58:18;5.50;;;3.42;;
19645;SDS011;9971;52.446;13.452;2023-10-13T18:03:21;7.62;;;3.33;;
19645;SDS011;9971;52.446;13.452;2023-10-13T18:08:24;8.57;;;4.10;;
19645;SDS011;9971;52.446;13.452;2023-10-13T18:13:26;8.10;;;4.05;;
19645;SDS011;9971;52.446;13.452;2023-10-13T18:18:29;9.65;;;3.95;;
19645;SDS011;9971;52.446;13.452;2023-10-13T18:23:32;8.10;;;4.20;;
19645;SDS011;9971;52.446;13.452;2023-10-13T18:28:34;5.42;;;4.65;;
19645;SDS011;9971;52.446;13.452;2023-10-13T18:33:37;8.43;;;4.60;;
19645;SDS011;9971;52.446;13.452;2023-10-13T18:38:39;4.77;;;3.77;;
19645;SDS011;9971;52.446;13.452;2023-10-13T18:43:46;5.97;;;3.60;;
19645;SDS011;9971;52.446;13.452;2023-10-13T18:49:00;4.73;;;3.80;;
19645;SDS011;9971;52.446;13.452;2023-10-13T18:54:03;8.10;;;4.10;;
19645;SDS011;9971;52.446;13.452;2023-10-13T18:59:06;8.13;;;4.42;;
19645;SDS011;9971;52.446;13.452;2023-10-13T19:04:09;4.50;;;3.75;;
19645;SDS011;9971;52.446;13.452;2023-10-13T19:09:12;7.60;;;3.63;;
19645;SDS011;9971;52.446;13.452;2023-10-13T19:14:14;4.87;;;3.60;;
19645;SDS011;9971;52.446;13.452;2023-10-13T19:19:17;6.23;;;3.80;;
19645;SDS011;9971;52.446;13.452;2023-10-13T19:24:20;5.00;;;2.93;;
19645;SDS011;9971;52.446;13.452;2023-10-13T19:29:27;4.60;;;3.40;;
19645;SDS011;9971;52.446;13.452;2023-10-13T19:34:30;5.60;;;3.23;;
19645;SDS011;9971;52.446;13.452;2023-10-13T19:39:33;7.55;;;3.77;;
19645;SDS011;9971;52.446;13.452;2023-10-13T19:44:35;5.17;;;3.37;;
19645;SDS011;9971;52.446;13.452;2023-10-13T19:49:37;4.78;;;3.40;;
19645;SDS011;9971;52.446;13.452;2023-10-13T19:54:40;7.13;;;4.03;;
19645;SDS011;9971;52.446;13.452;2023-10-13T19:59:43;6.43;;;3.87;;
19645;SDS011;9971;52.446;13.452;2023-10-13T20:04:45;5.72;;;3.35;;
19645;SDS011;9971;52.446;13.452;2023-10-13T20:09:50;4.53;;;3.30;;
19645;SDS011;9971;52.446;13.452;2023-10-13T20:14:54;4.50;;;3.60;;
19645;SDS011;9971;52.446;13.452;2023-10-13T20:19:56;6.67;;;3.62;;
19645;SDS011;9971;52.446;13.452;2023-10-13T20:24:58;4.08;;;3.72;;
19645;SDS011;9971;52.446;13.452;2023-10-13T20:30:01;8.55;;;3.95;;
19645;SDS011;9971;52.446;13.452;2023-10-13T20:35:04;4.30;;;3.15;;
19645;SDS011;9971;52.446;13.452;2023-10-13T20:40:07;6.90;;;3.70;;
19645;SDS011;9971;52.446;13.452;2023-10-13T20:45:20;7.40;;;3.57;;
19645;SDS011;9971;52.446;13.452;2023-10-13T20:50:23;7.80;;;3.50;;
19645;SDS011;9971;52.446;13.452;2023-10-13T20:55:25;4.05;;;3.52;;
19645;SDS011;9971;52.446;13.452;2023-10-13T21:00:28;6.42;;;3.35;;
19645;SDS011;9971;52.446;13.452;2023-10-13T21:05:30;5.15;;;3.45;;
19645;SDS011;9971;52.446;13.452;2023-10-13T21:10:33;6.08;;;3.75;;
19645;SDS011;9971;52.446;13.452;2023-10-13T21:15:39;5.58;;;3.58;;
19645;SDS011;9971;52.446;13.452;2023-10-13T21:20:47;4.43;;;3.97;;
19645;SDS011;9971;52.446;13.452;2023-10-13T21:25:53;4.43;;;3.47;;
19645;SDS011;9971;52.446;13.452;2023-10-13T21:36:07;3.90;;;3.47;;
19645;SDS011;9971;52.446;13.452;2023-10-13T21:41:10;4.00;;;3.22;;
19645;SDS011;9971;52.446;13.452;2023-10-13T21:46:12;5.30;;;3.50;;
19645;SDS011;9971;52.446;13.452;2023-10-13T21:51:14;7.12;;;3.70;;
19645;SDS011;9971;52.446;13.452;2023-10-13T21:56:16;3.92;;;3.10;;
19645;SDS011;9971;52.446;13.452;2023-10-13T22:01:17;6.07;;;3.63;;
19645;SDS011;9971;52.446;13.452;2023-10-13T22:22:31;6.42;;;3.47;;
19645;SDS011;9971;52.446;13.452;2023-10-13T22:27:32;6.35;;;3.77;;
19645;SDS011;9971;52.446;13.452;2023-10-13T22:32:36;5.00;;;3.15;;
19645;SDS011;9971;52.446;13.452;2023-10-13T22:37:38;5.05;;;3.50;;
19645;SDS011;9971;52.446;13.452;2023-10-13T22:42:40;4.12;;;3.17;;
19645;SDS011;9971;52.446;13.452;2023-10-13T22:47:44;4.13;;;3.30;;
19645;SDS011;9971;52.446;13.452;2023-10-13T22:52:45;5.77;;;3.23;;
19645;SDS011;9971;52.446;13.452;2023-10-13T22:57:49;6.20;;;3.65;;
19645;SDS011;9971;52.446;13.452;2023-10-13T23:02:50;6.17;;;3.30;;
19645;SDS011;9971;52.446;13.452;2023-10-13T23:07:54;5.13;;;3.37;;
19645;SDS011;9971;52.446;13.452;2023-10-13T23:13:02;4.83;;;3.25;;
19645;SDS011;9971;52.446;13.452;2023-10-13T23:18:05;4.17;;;3.20;;
19645;SDS011;9971;52.446;13.452;2023-10-13T23:23:07;5.53;;;3.10;;
19645;SDS011;9971;52.446;13.452;2023-10-13T23:28:10;4.58;;;3.45;;
19645;SDS011;9971;52.446;13.452;2023-10-13T23:33:12;3.35;;;3.00;;
19645;SDS011;9971;52.446;13.452;2023-10-13T23:38:15;8.88;;;3.27;;
19645;SDS011;9971;52.446;13.452;2023-10-13T23:43:19;4.40;;;3.27;;
19645;SDS011;9971;52.446;13.452;2023-10-13T23:48:21;4.62;;;2.77;;
19645;SDS011;9971;52.446;13.452;2023-10-13T23:53:24;4.25;;;2.60;;
19645;SDS011;9971;52.446;13.452;2023-10-13T23:58:28;9.67;;;3.00;;
